createdAt,value
2022-11-26T00:02:18.522Z,3.17
2022-11-26T00:04:45.087Z,2.97
2022-11-26T00:07:12.680Z,3.40
2022-11-26T00:09:39.343Z,3.60
2022-11-26T00:12:25.465Z,3.03
2022-11-26T00:14:51.848Z,2.38
2022-11-26T00:17:18.810Z,2.88
2022-11-26T00:19:45.315Z,2.97
2022-11-26T00:22:29.375Z,2.67
2022-11-26T00:24:56.077Z,2.88
2022-11-26T00:27:24.491Z,3.80
2022-11-26T00:29:50.934Z,3.20
2022-11-26T00:32:18.581Z,2.80
2022-11-26T00:34:45.038Z,3.20
2022-11-26T00:37:20.550Z,3.28
2022-11-26T00:39:47.171Z,2.60
2022-11-26T00:42:13.551Z,2.80
2022-11-26T00:44:40.297Z,3.00
2022-11-26T00:47:06.819Z,3.20
2022-11-26T00:49:33.172Z,2.97
2022-11-26T00:51:59.680Z,2.67
2022-11-26T00:54:26.410Z,2.30
2022-11-26T00:56:52.770Z,3.70
2022-11-26T00:59:19.968Z,2.42
2022-11-26T01:01:46.382Z,2.95
2022-11-26T01:04:12.854Z,2.47
2022-11-26T01:06:40.418Z,2.40
2022-11-26T01:09:08.192Z,2.40
2022-11-26T01:11:34.474Z,2.00
2022-11-26T01:14:00.912Z,2.70
2022-11-26T01:16:29.627Z,2.75
2022-11-26T01:18:57.770Z,2.70
2022-11-26T01:21:25.786Z,2.55
2022-11-26T01:23:52.431Z,1.83
2022-11-26T01:26:22.998Z,2.53
2022-11-26T01:28:49.524Z,2.65
2022-11-26T01:31:17.166Z,2.58
2022-11-26T01:33:44.112Z,2.63
2022-11-26T01:36:25.582Z,3.47
2022-11-26T01:38:55.683Z,2.30
2022-11-26T01:41:30.058Z,2.58
2022-11-26T01:43:57.426Z,2.63
2022-11-26T01:46:26.279Z,2.30
2022-11-26T01:48:52.843Z,1.90
2022-11-26T01:51:25.255Z,2.63
2022-11-26T01:53:53.965Z,2.42
2022-11-26T01:56:27.047Z,2.88
2022-11-26T01:58:58.417Z,2.80
2022-11-26T02:01:24.987Z,2.60
2022-11-26T02:04:10.290Z,2.80
2022-11-26T02:06:36.816Z,3.10
2022-11-26T02:09:04.806Z,3.15
2022-11-26T02:11:31.609Z,3.17
2022-11-26T02:14:02.587Z,2.92
2022-11-26T02:16:36.658Z,3.22
2022-11-26T02:19:12.271Z,3.08
2022-11-26T02:21:39.521Z,3.17
2022-11-26T02:24:05.999Z,2.67
2022-11-26T02:26:56.783Z,2.75
2022-11-26T02:29:30.594Z,2.88
2022-11-26T02:32:03.354Z,2.92
2022-11-26T02:34:37.505Z,2.38
2022-11-26T02:37:07.697Z,2.85
2022-11-26T02:39:33.991Z,2.67
2022-11-26T02:42:02.333Z,3.13
2022-11-26T02:44:30.910Z,2.58
2022-11-26T02:47:01.437Z,2.45
2022-11-26T02:49:28.988Z,2.70
2022-11-26T02:51:57.347Z,2.78
2022-11-26T02:54:24.436Z,3.20
2022-11-26T02:56:51.640Z,3.03
2022-11-26T02:59:18.070Z,4.20
2022-11-26T03:01:47.419Z,2.97
2022-11-26T03:04:17.637Z,3.22
2022-11-26T03:06:44.131Z,2.97
2022-11-26T03:09:10.410Z,2.83
2022-11-26T03:11:37.841Z,3.33
2022-11-26T03:14:04.225Z,3.22
2022-11-26T03:16:30.645Z,3.22
2022-11-26T03:18:57.018Z,3.75
2022-11-26T03:21:24.866Z,2.72
2022-11-26T03:23:51.231Z,2.20
2022-11-26T03:26:17.575Z,2.70
2022-11-26T03:28:43.862Z,2.45
2022-11-26T03:31:10.223Z,2.85
2022-11-26T03:33:36.578Z,2.55
2022-11-26T03:36:02.929Z,2.38
2022-11-26T03:38:29.210Z,3.70
2022-11-26T03:41:00.092Z,3.35
2022-11-26T03:43:26.824Z,3.40
2022-11-26T03:45:53.407Z,3.38
2022-11-26T03:48:19.845Z,2.75
2022-11-26T03:50:46.130Z,2.90
2022-11-26T03:53:12.496Z,2.88
2022-11-26T03:55:38.804Z,2.88
2022-11-26T03:58:05.110Z,3.38
2022-11-26T04:00:31.431Z,3.03
2022-11-26T04:02:57.783Z,2.88
2022-11-26T04:05:24.153Z,3.05
2022-11-26T04:07:50.517Z,3.20
2022-11-26T04:10:16.896Z,3.58
2022-11-26T04:12:43.278Z,3.35
2022-11-26T04:15:09.953Z,2.35
2022-11-26T04:17:36.222Z,2.92
2022-11-26T04:20:02.748Z,3.25
2022-11-26T04:22:29.086Z,3.08
2022-11-26T04:24:55.390Z,3.05
2022-11-26T04:27:21.767Z,3.67
2022-11-26T04:29:48.091Z,2.80
2022-11-26T04:32:14.480Z,3.42
2022-11-26T04:34:41.049Z,3.78
2022-11-26T04:37:07.461Z,3.78
2022-11-26T04:39:33.933Z,3.50
2022-11-26T04:42:00.254Z,3.50
2022-11-26T04:44:26.726Z,3.58
2022-11-26T04:46:53.021Z,3.90
2022-11-26T04:49:19.426Z,3.72
2022-11-26T04:51:45.758Z,3.60
2022-11-26T04:54:13.273Z,3.78
2022-11-26T04:56:39.791Z,3.30
2022-11-26T04:59:06.173Z,2.47
2022-11-26T05:01:32.545Z,3.60
2022-11-26T05:03:58.918Z,4.18
2022-11-26T05:06:25.242Z,3.65
2022-11-26T05:08:51.527Z,3.53
2022-11-26T05:11:17.874Z,3.58
2022-11-26T05:13:44.212Z,3.63
2022-11-26T05:16:10.554Z,3.55
2022-11-26T05:18:36.880Z,4.07
2022-11-26T05:21:04.883Z,3.65
2022-11-26T05:23:31.201Z,4.10
2022-11-26T05:25:57.493Z,3.78
2022-11-26T05:28:23.814Z,3.78
2022-11-26T05:30:56.974Z,3.97
2022-11-26T05:33:23.259Z,3.80
2022-11-26T05:35:49.569Z,3.90
2022-11-26T05:38:16.032Z,3.67
2022-11-26T05:40:42.335Z,3.63
2022-11-26T05:43:08.714Z,4.50
2022-11-26T05:45:35.094Z,4.63
2022-11-26T05:48:01.440Z,4.13
2022-11-26T05:50:27.724Z,4.70
2022-11-26T05:52:54.145Z,4.10
2022-11-26T05:55:20.547Z,4.35
2022-11-26T05:57:46.837Z,4.32
2022-11-26T06:00:13.509Z,4.18
2022-11-26T06:02:40.012Z,4.70
2022-11-26T06:05:06.870Z,4.00
2022-11-26T06:07:33.287Z,5.20
2022-11-26T06:09:59.649Z,4.53
2022-11-26T06:12:26.116Z,5.38
2022-11-26T06:14:52.617Z,5.50
2022-11-26T06:17:19.023Z,5.50
2022-11-26T06:19:45.401Z,5.82
2022-11-26T06:22:11.697Z,6.03
2022-11-26T06:24:38.213Z,5.68
2022-11-26T06:27:04.966Z,5.28
2022-11-26T06:29:31.250Z,7.93
2022-11-26T06:31:57.613Z,6.38
2022-11-26T06:34:24.023Z,7.28
2022-11-26T06:36:51.706Z,6.20
2022-11-26T06:39:19.227Z,6.70
2022-11-26T06:41:45.578Z,5.70
2022-11-26T06:44:11.863Z,6.20
2022-11-26T06:46:38.266Z,6.80
2022-11-26T06:49:05.194Z,5.82
2022-11-26T06:51:32.037Z,6.18
2022-11-26T06:53:58.658Z,5.20
2022-11-26T06:56:25.308Z,5.70
2022-11-26T06:58:54.870Z,6.20
2022-11-26T07:01:23.882Z,5.45
2022-11-26T07:03:50.757Z,5.97
2022-11-26T07:06:21.683Z,5.82
2022-11-26T07:08:48.650Z,5.45
2022-11-26T07:11:15.004Z,5.45
2022-11-26T07:13:41.384Z,5.22
2022-11-26T07:16:08.223Z,5.10
2022-11-26T07:18:34.607Z,5.88
2022-11-26T07:21:08.072Z,5.47
2022-11-26T07:23:34.382Z,5.22
2022-11-26T07:26:04.090Z,5.88
2022-11-26T07:28:30.502Z,5.40
2022-11-26T07:31:17.208Z,5.57
2022-11-26T07:33:44.357Z,5.63
2022-11-26T07:36:15.500Z,5.20
2022-11-26T07:38:41.799Z,5.18
2022-11-26T07:41:09.852Z,5.32
2022-11-26T07:43:37.221Z,4.63
2022-11-26T07:46:04.814Z,5.97
2022-11-26T07:48:31.667Z,4.50
2022-11-26T07:50:58.202Z,5.18
2022-11-26T07:53:24.586Z,4.82
2022-11-26T07:55:51.041Z,4.72
2022-11-26T07:58:17.341Z,4.40
2022-11-26T08:00:43.639Z,5.28
2022-11-26T08:03:10.056Z,4.88
2022-11-26T08:05:40.770Z,5.45
2022-11-26T08:08:07.190Z,4.65
2022-11-26T08:10:33.574Z,4.55
2022-11-26T08:12:59.887Z,5.05
2022-11-26T08:15:26.177Z,5.63
2022-11-26T08:17:56.315Z,4.88
2022-11-26T08:20:27.480Z,5.25
2022-11-26T08:22:55.340Z,5.88
2022-11-26T08:25:21.963Z,5.55
2022-11-26T08:27:49.047Z,5.43
2022-11-26T08:30:15.501Z,5.40
2022-11-26T08:32:41.824Z,5.63
2022-11-26T08:35:08.198Z,4.63
2022-11-26T08:37:34.485Z,5.68
2022-11-26T08:40:00.851Z,4.88
2022-11-26T08:42:27.143Z,4.60
2022-11-26T08:44:54.302Z,4.60
2022-11-26T08:47:21.053Z,4.90
2022-11-26T08:49:49.602Z,6.80
2022-11-26T08:52:15.942Z,4.75
2022-11-26T08:54:45.339Z,4.43
2022-11-26T08:57:12.098Z,4.93
2022-11-26T08:59:38.429Z,3.92
2022-11-26T09:02:04.871Z,5.00
2022-11-26T09:04:31.977Z,5.35
2022-11-26T09:06:58.271Z,4.63
2022-11-26T09:09:24.591Z,4.15
2022-11-26T09:11:53.890Z,6.75
2022-11-26T09:14:21.126Z,5.25
2022-11-26T09:16:47.910Z,4.88
2022-11-26T09:19:14.727Z,4.60
2022-11-26T09:21:41.026Z,4.72
2022-11-26T09:24:07.362Z,4.25
2022-11-26T09:26:34.089Z,5.00
2022-11-26T09:29:00.465Z,4.72
2022-11-26T09:31:26.907Z,4.95
2022-11-26T09:33:55.616Z,5.20
2022-11-26T09:36:22.052Z,4.30
2022-11-26T09:38:48.415Z,4.07
2022-11-26T09:41:33.971Z,4.47
2022-11-26T09:44:19.156Z,5.30
2022-11-26T09:47:12.209Z,4.30
2022-11-26T09:49:53.438Z,4.25
2022-11-26T09:52:21.262Z,4.25
2022-11-26T09:54:49.694Z,4.07
2022-11-26T09:57:19.935Z,4.28
2022-11-26T09:59:47.287Z,3.25
2022-11-26T10:02:14.112Z,3.90
2022-11-26T10:04:41.020Z,3.25
2022-11-26T10:07:26.750Z,3.25
2022-11-26T10:10:07.625Z,3.55
2022-11-26T10:13:03.538Z,3.35
2022-11-26T10:15:40.492Z,3.63
2022-11-26T10:18:09.582Z,4.43
2022-11-26T10:20:45.410Z,4.15
2022-11-26T10:25:55.096Z,5.10
2022-11-26T10:28:21.499Z,4.20
2022-11-26T10:30:52.843Z,5.10
2022-11-26T10:33:20.358Z,4.65
2022-11-26T10:35:48.997Z,5.43
2022-11-26T10:38:15.294Z,3.97
2022-11-26T10:40:41.822Z,4.78
2022-11-26T10:43:10.889Z,4.43
2022-11-26T10:45:39.549Z,4.28
2022-11-26T10:48:14.800Z,3.53
2022-11-26T10:50:47.573Z,3.95
2022-11-26T10:53:24.894Z,4.93
2022-11-26T10:55:52.118Z,4.43
2022-11-26T10:58:22.812Z,4.32
2022-11-26T11:00:49.343Z,4.53
2022-11-26T11:03:15.846Z,4.60
2022-11-26T11:05:42.952Z,4.68
2022-11-26T11:08:27.708Z,4.25
2022-11-26T11:10:58.310Z,4.32
2022-11-26T11:13:38.540Z,4.55
2022-11-26T11:16:05.007Z,4.18
2022-11-26T11:18:31.453Z,3.95
2022-11-26T11:20:58.848Z,3.80
2022-11-26T11:23:45.796Z,4.60
2022-11-26T11:26:21.307Z,4.40
2022-11-26T11:28:51.853Z,4.57
2022-11-26T11:31:22.433Z,4.82
2022-11-26T11:33:49.652Z,4.10
2022-11-26T11:36:24.419Z,4.22
2022-11-26T11:38:55.463Z,4.57
2022-11-26T11:41:32.939Z,4.25
2022-11-26T11:44:02.463Z,4.25
2022-11-26T11:46:37.597Z,3.97
2022-11-26T11:49:03.869Z,4.80
2022-11-26T11:51:41.740Z,4.18
2022-11-26T11:54:17.216Z,4.82
2022-11-26T11:56:50.515Z,5.10
2022-11-26T11:59:16.859Z,5.00
2022-11-26T12:01:49.355Z,4.32
2022-11-26T12:04:34.728Z,4.60
2022-11-26T12:07:19.635Z,4.10
2022-11-26T12:09:55.818Z,4.75
2022-11-26T12:12:27.024Z,4.20
2022-11-26T12:14:55.209Z,4.40
2022-11-26T12:17:27.762Z,4.90
2022-11-26T12:20:00.177Z,4.70
2022-11-26T12:22:28.487Z,4.65
2022-11-26T12:25:01.382Z,4.47
2022-11-26T12:27:37.551Z,4.50
2022-11-26T12:30:05.848Z,4.85
2022-11-26T12:32:35.200Z,5.72
2022-11-26T12:35:04.921Z,4.65
2022-11-26T12:37:33.298Z,4.22
2022-11-26T12:40:07.036Z,3.65
2022-11-26T12:42:45.856Z,3.97
2022-11-26T12:45:30.627Z,4.00
2022-11-26T12:48:05.904Z,3.90
2022-11-26T12:50:38.149Z,4.25
2022-11-26T12:53:18.435Z,4.30
2022-11-26T12:56:01.350Z,4.40
2022-11-26T12:58:30.975Z,3.83
2022-11-26T13:00:58.399Z,4.35
2022-11-26T13:03:27.827Z,4.50
2022-11-26T13:06:00.138Z,4.10
2022-11-26T13:08:55.819Z,3.97
2022-11-26T13:11:31.161Z,4.05
2022-11-26T13:13:58.470Z,4.47
2022-11-26T13:16:40.672Z,4.05
2022-11-26T13:19:11.166Z,3.75
2022-11-26T13:21:56.067Z,4.45
2022-11-26T13:24:34.650Z,3.92
2022-11-26T13:27:09.219Z,4.28
2022-11-26T13:29:50.006Z,3.58
2022-11-26T13:32:35.170Z,3.20
2022-11-26T13:35:13.493Z,4.50
2022-11-26T13:37:58.568Z,3.53
2022-11-26T13:40:34.073Z,3.53
2022-11-26T13:43:09.502Z,3.35
2022-11-26T13:45:48.073Z,4.45
2022-11-26T13:48:17.792Z,3.75
2022-11-26T13:50:44.099Z,4.00
2022-11-26T13:53:10.482Z,4.35
2022-11-26T13:55:40.792Z,4.40
2022-11-26T13:58:08.391Z,3.72
2022-11-26T14:00:35.479Z,3.22
2022-11-26T14:03:02.607Z,3.35
2022-11-26T14:05:52.243Z,3.65
2022-11-26T14:08:35.452Z,4.13
2022-11-26T14:11:01.889Z,3.42
2022-11-26T14:13:28.197Z,3.70
2022-11-26T14:15:56.364Z,3.58
2022-11-26T14:18:41.570Z,4.10
2022-11-26T14:21:07.875Z,3.55
2022-11-26T14:23:47.394Z,3.70
2022-11-26T14:26:16.751Z,3.80
2022-11-26T14:28:43.142Z,3.90
2022-11-26T14:31:21.106Z,3.25
2022-11-26T14:33:48.390Z,4.00
2022-11-26T14:36:25.011Z,3.70
2022-11-26T14:39:11.021Z,3.45
2022-11-26T14:41:43.415Z,4.10
2022-11-26T14:44:13.793Z,2.83
2022-11-26T14:46:40.875Z,3.60
2022-11-26T14:49:24.844Z,3.25
2022-11-26T14:51:53.440Z,3.05
2022-11-26T14:54:24.602Z,3.75
2022-11-26T14:56:51.018Z,2.85
2022-11-26T14:59:18.059Z,3.42
2022-11-26T15:01:45.680Z,3.35
2022-11-26T15:04:31.487Z,3.40
2022-11-26T15:06:58.881Z,3.03
2022-11-26T15:09:26.769Z,3.22
2022-11-26T15:12:10.678Z,3.40
2022-11-26T15:14:46.638Z,3.33
2022-11-26T15:17:14.661Z,2.78
2022-11-26T15:19:41.992Z,3.15
2022-11-26T15:22:26.968Z,2.60
2022-11-26T15:24:53.822Z,3.10
2022-11-26T15:27:27.541Z,3.10
2022-11-26T15:29:53.967Z,2.72
2022-11-26T15:32:27.821Z,3.05
2022-11-26T15:34:54.614Z,2.70
2022-11-26T15:37:20.972Z,3.55
2022-11-26T15:39:47.303Z,3.17
2022-11-26T15:42:30.504Z,3.13
2022-11-26T15:44:57.081Z,3.63
2022-11-26T15:47:24.429Z,3.22
2022-11-26T15:49:52.750Z,2.90
2022-11-26T15:52:21.657Z,3.22
2022-11-26T15:55:13.996Z,3.45
2022-11-26T15:57:41.020Z,2.83
2022-11-26T16:00:27.761Z,3.92
2022-11-26T16:02:54.191Z,3.53
2022-11-26T16:05:28.619Z,3.42
2022-11-26T16:07:58.668Z,4.25
2022-11-26T16:10:26.695Z,3.10
2022-11-26T16:13:11.407Z,4.10
2022-11-26T16:15:44.584Z,3.58
2022-11-26T16:18:18.757Z,2.90
2022-11-26T16:20:45.517Z,2.92
2022-11-26T16:23:19.075Z,3.15
2022-11-26T16:26:05.376Z,3.28
2022-11-26T16:30:57.905Z,3.83
2022-11-26T16:33:26.408Z,3.55
2022-11-26T16:35:52.721Z,2.70
2022-11-26T16:38:21.191Z,3.42
2022-11-26T16:40:47.697Z,3.13
2022-11-26T16:43:14.148Z,2.90
2022-11-26T16:45:40.504Z,2.40
2022-11-26T16:48:22.311Z,3.25
2022-11-26T16:50:48.731Z,3.55
2022-11-26T16:53:15.158Z,3.78
2022-11-26T16:55:41.538Z,2.95
2022-11-26T16:58:15.308Z,3.90
2022-11-26T17:00:41.691Z,3.30
2022-11-26T17:03:12.855Z,2.90
2022-11-26T17:05:41.348Z,3.67
2022-11-26T17:08:09.974Z,3.30
2022-11-26T17:10:36.383Z,3.85
2022-11-26T17:13:02.702Z,2.83
2022-11-26T17:15:29.070Z,3.22
2022-11-26T17:17:59.799Z,3.10
2022-11-26T17:20:26.139Z,3.08
2022-11-26T17:22:52.869Z,3.35
2022-11-26T17:25:19.554Z,3.72
2022-11-26T17:27:46.430Z,4.18
2022-11-26T17:30:15.586Z,3.65
2022-11-26T17:32:41.901Z,3.70
2022-11-26T17:35:08.335Z,3.30
2022-11-26T17:37:35.589Z,3.15
2022-11-26T17:40:02.264Z,4.05
2022-11-26T17:42:32.296Z,3.58
2022-11-26T17:45:02.707Z,2.97
2022-11-26T17:47:29.124Z,3.10
2022-11-26T17:49:55.527Z,3.67
2022-11-26T17:52:22.926Z,3.08
2022-11-26T17:54:49.466Z,3.58
2022-11-26T17:57:16.445Z,3.35
2022-11-26T17:59:42.913Z,3.13
2022-11-26T18:02:09.705Z,3.22
2022-11-26T18:04:36.906Z,4.03
2022-11-26T18:07:15.646Z,3.35
2022-11-26T18:09:42.803Z,2.95
2022-11-26T18:12:17.106Z,3.47
2022-11-26T18:14:46.585Z,3.47
2022-11-26T18:17:12.891Z,2.80
2022-11-26T18:19:43.563Z,4.63
2022-11-26T18:22:11.329Z,3.33
2022-11-26T18:24:37.671Z,3.15
2022-11-26T18:27:04.067Z,3.45
2022-11-26T18:29:30.458Z,3.47
2022-11-26T18:31:56.888Z,3.08
2022-11-26T18:34:23.403Z,4.07
2022-11-26T18:36:53.655Z,3.58
2022-11-26T18:39:20.403Z,2.90
2022-11-26T18:41:46.728Z,3.35
2022-11-26T18:44:13.064Z,2.72
2022-11-26T18:46:39.505Z,3.13
2022-11-26T18:49:05.956Z,4.25
2022-11-26T18:51:32.363Z,2.90
2022-11-26T18:53:58.650Z,2.65
2022-11-26T18:56:25.074Z,3.70
2022-11-26T18:58:51.698Z,4.28
2022-11-26T19:01:25.150Z,3.65
2022-11-26T19:03:51.826Z,4.05
2022-11-26T19:06:20.575Z,3.53
2022-11-26T19:08:47.578Z,3.72
2022-11-26T19:11:16.783Z,3.83
2022-11-26T19:13:43.347Z,3.60
2022-11-26T19:16:16.089Z,3.63
2022-11-26T19:18:43.188Z,3.65
2022-11-26T19:21:35.784Z,4.05
2022-11-26T19:24:03.043Z,4.30
2022-11-26T19:26:29.460Z,4.05
2022-11-26T19:28:56.801Z,4.20
2022-11-26T19:31:23.868Z,4.47
2022-11-26T19:33:58.124Z,3.72
2022-11-26T19:36:24.812Z,3.60
2022-11-26T19:38:55.238Z,4.28
2022-11-26T19:41:25.613Z,3.72
2022-11-26T19:43:52.824Z,4.10
2022-11-26T19:46:20.619Z,4.57
2022-11-26T19:48:47.892Z,4.15
2022-11-26T19:51:15.151Z,4.07
2022-11-26T19:53:41.520Z,4.00
2022-11-26T19:56:15.207Z,4.53
2022-11-26T19:58:41.554Z,4.28
2022-11-26T20:01:09.005Z,3.90
2022-11-26T20:03:37.596Z,3.75
2022-11-26T20:06:06.037Z,4.38
2022-11-26T20:08:32.722Z,4.75
2022-11-26T20:11:05.947Z,3.55
2022-11-26T20:13:32.832Z,4.95
2022-11-26T20:15:59.123Z,3.65
2022-11-26T20:18:25.589Z,4.50
2022-11-26T20:20:59.088Z,3.17
2022-11-26T20:23:25.857Z,3.92
2022-11-26T20:25:52.308Z,4.32
2022-11-26T20:28:18.727Z,3.83
2022-11-26T20:30:45.135Z,4.47
2022-11-26T20:33:11.574Z,4.13
2022-11-26T20:35:41.811Z,4.45
2022-11-26T20:38:08.578Z,4.15
2022-11-26T20:40:35.117Z,4.28
2022-11-26T20:43:01.448Z,4.22
2022-11-26T20:45:27.767Z,3.95
2022-11-26T20:47:55.841Z,4.30
2022-11-26T20:50:22.149Z,4.10
2022-11-26T20:52:48.481Z,4.28
2022-11-26T20:55:15.707Z,4.20
2022-11-26T20:57:42.136Z,4.13
2022-11-26T21:00:08.798Z,4.53
2022-11-26T21:02:35.289Z,3.90
2022-11-26T21:05:01.734Z,4.32
2022-11-26T21:07:29.749Z,4.57
2022-11-26T21:09:58.166Z,4.10
2022-11-26T21:12:25.347Z,4.57
2022-11-26T21:14:51.926Z,4.18
2022-11-26T21:17:18.517Z,4.22
2022-11-26T21:19:45.064Z,3.90
2022-11-26T21:22:11.409Z,4.20
2022-11-26T21:24:38.372Z,3.60
2022-11-26T21:27:05.187Z,3.88
2022-11-26T21:29:32.853Z,4.90
2022-11-26T21:31:59.520Z,4.18
2022-11-26T21:34:25.828Z,4.47
2022-11-26T21:36:52.132Z,5.47
2022-11-26T21:39:18.511Z,4.55
2022-11-26T21:41:44.806Z,5.05
2022-11-26T21:44:11.187Z,5.00
2022-11-26T21:46:38.760Z,3.95
2022-11-26T21:49:05.645Z,4.38
2022-11-26T21:51:31.992Z,4.10
2022-11-26T21:53:58.405Z,5.15
2022-11-26T21:56:28.783Z,5.55
2022-11-26T21:58:56.903Z,4.55
2022-11-26T22:01:27.945Z,4.53
2022-11-26T22:03:56.322Z,5.32
2022-11-26T22:06:23.474Z,4.22
2022-11-26T22:08:50.141Z,4.68
2022-11-26T22:11:17.998Z,5.00
2022-11-26T22:13:44.520Z,4.57
2022-11-26T22:16:12.638Z,4.10
2022-11-26T22:18:40.014Z,4.57
2022-11-26T22:21:14.428Z,4.13
2022-11-26T22:23:40.785Z,4.75
2022-11-26T22:26:07.951Z,5.28
2022-11-26T22:28:35.089Z,4.18
2022-11-26T22:31:11.898Z,4.22
2022-11-26T22:33:38.719Z,4.40
2022-11-26T22:36:05.399Z,4.65
2022-11-26T22:38:33.158Z,4.20
2022-11-26T22:41:03.479Z,4.35
2022-11-26T22:43:30.044Z,3.83
2022-11-26T22:45:56.383Z,4.47
2022-11-26T22:48:22.910Z,3.92
2022-11-26T22:50:50.062Z,4.45
2022-11-26T22:53:16.356Z,4.38
2022-11-26T22:55:49.443Z,3.40
2022-11-26T22:58:15.723Z,4.38
2022-11-26T23:00:47.891Z,4.30
2022-11-26T23:03:14.346Z,3.92
2022-11-26T23:05:41.023Z,3.85
2022-11-26T23:08:07.356Z,4.07
2022-11-26T23:10:33.703Z,4.13
2022-11-26T23:13:00.094Z,3.95
2022-11-26T23:15:26.411Z,3.53
2022-11-26T23:17:52.804Z,3.67
2022-11-26T23:20:19.097Z,4.15
2022-11-26T23:22:45.486Z,4.18
2022-11-26T23:25:11.807Z,4.00
2022-11-26T23:27:38.119Z,3.88
2022-11-26T23:30:05.058Z,4.15
2022-11-26T23:32:32.602Z,3.83
2022-11-26T23:34:59.130Z,4.13
2022-11-26T23:37:25.455Z,4.03
2022-11-26T23:39:51.746Z,3.13
2022-11-26T23:42:18.028Z,3.60
2022-11-26T23:44:44.315Z,4.53
2022-11-26T23:47:10.687Z,3.45
2022-11-26T23:49:37.113Z,3.63
2022-11-26T23:52:03.608Z,3.13
2022-11-26T23:54:29.998Z,4.38
2022-11-26T23:56:56.336Z,3.40
2022-11-26T23:59:22.670Z,3.50
